sensor_id;sensor_type;location;lat;lon;timestamp;P1;durP1;ratioP1;P2;durP2;ratioP2
51618;SDS011;38518;53.164;5.430;2023-10-09T00:00:23;56.10;;;35.70;;
51618;SDS011;38518;53.164;5.430;2023-10-09T00:03:04;53.65;;;34.78;;
51618;SDS011;38518;53.164;5.430;2023-10-09T00:05:31;56.47;;;35.42;;
51618;SDS011;38518;53.164;5.430;2023-10-09T00:08:10;54.83;;;35.50;;
51618;SDS011;38518;53.164;5.430;2023-10-09T00:10:41;54.83;;;35.35;;
51618;SDS011;38518;53.164;5.430;2023-10-09T00:13:25;56.28;;;35.70;;
51618;SDS011;38518;53.164;5.430;2023-10-09T00:15:54;63.58;;;40.42;;
51618;SDS011;38518;53.164;5.430;2023-10-09T00:18:25;58.42;;;36.75;;
51618;SDS011;38518;53.164;5.430;2023-10-09T00:20:57;56.42;;;36.33;;
51618;SDS011;38518;53.164;5.430;2023-10-09T00:23:36;56.35;;;36.95;;
51618;SDS011;38518;53.164;5.430;2023-10-09T00:26:02;62.55;;;40.55;;
51618;SDS011;38518;53.164;5.430;2023-10-09T00:28:35;58.97;;;38.28;;
51618;SDS011;38518;53.164;5.430;2023-10-09T00:31:05;57.42;;;38.20;;
51618;SDS011;38518;53.164;5.430;2023-10-09T00:33:40;58.53;;;37.00;;
51618;SDS011;38518;53.164;5.430;2023-10-09T00:36:06;57.45;;;37.92;;
51618;SDS011;38518;53.164;5.430;2023-10-09T00:38:36;58.58;;;37.33;;
51618;SDS011;38518;53.164;5.430;2023-10-09T00:41:09;60.75;;;37.55;;
51618;SDS011;38518;53.164;5.430;2023-10-09T00:43:36;55.63;;;35.78;;
51618;SDS011;38518;53.164;5.430;2023-10-09T00:46:04;55.05;;;34.75;;
51618;SDS011;38518;53.164;5.430;2023-10-09T00:48:49;48.83;;;31.83;;
51618;SDS011;38518;53.164;5.430;2023-10-09T00:51:20;52.03;;;34.03;;
51618;SDS011;38518;53.164;5.430;2023-10-09T00:53:54;49.97;;;33.53;;
51618;SDS011;38518;53.164;5.430;2023-10-09T00:56:23;53.22;;;34.28;;
51618;SDS011;38518;53.164;5.430;2023-10-09T00:58:56;49.78;;;33.72;;
51618;SDS011;38518;53.164;5.430;2023-10-09T01:01:39;49.78;;;32.55;;
51618;SDS011;38518;53.164;5.430;2023-10-09T01:04:07;50.78;;;33.28;;
51618;SDS011;38518;53.164;5.430;2023-10-09T01:06:41;54.65;;;34.40;;
51618;SDS011;38518;53.164;5.430;2023-10-09T01:09:10;49.47;;;33.72;;
51618;SDS011;38518;53.164;5.430;2023-10-09T01:11:42;52.67;;;32.63;;
51618;SDS011;38518;53.164;5.430;2023-10-09T01:14:14;50.33;;;32.93;;
51618;SDS011;38518;53.164;5.430;2023-10-09T01:16:40;50.33;;;33.25;;
51618;SDS011;38518;53.164;5.430;2023-10-09T01:19:07;50.10;;;32.50;;
51618;SDS011;38518;53.164;5.430;2023-10-09T01:21:45;51.08;;;32.92;;
51618;SDS011;38518;53.164;5.430;2023-10-09T01:24:11;45.08;;;30.55;;
51618;SDS011;38518;53.164;5.430;2023-10-09T01:26:37;48.60;;;32.08;;
51618;SDS011;38518;53.164;5.430;2023-10-09T01:29:08;50.67;;;32.63;;
51618;SDS011;38518;53.164;5.430;2023-10-09T01:31:43;48.75;;;31.45;;
51618;SDS011;38518;53.164;5.430;2023-10-09T01:34:26;48.08;;;31.52;;
51618;SDS011;38518;53.164;5.430;2023-10-09T01:37:15;45.28;;;29.90;;
51618;SDS011;38518;53.164;5.430;2023-10-09T01:39:57;43.00;;;30.65;;
51618;SDS011;38518;53.164;5.430;2023-10-09T01:42:47;48.83;;;31.25;;
51618;SDS011;38518;53.164;5.430;2023-10-09T01:45:12;45.75;;;29.23;;
51618;SDS011;38518;53.164;5.430;2023-10-09T01:47:55;41.67;;;26.85;;
51618;SDS011;38518;53.164;5.430;2023-10-09T01:50:21;43.45;;;26.70;;
51618;SDS011;38518;53.164;5.430;2023-10-09T01:52:50;34.45;;;24.17;;
51618;SDS011;38518;53.164;5.430;2023-10-09T01:55:19;34.20;;;22.15;;
51618;SDS011;38518;53.164;5.430;2023-10-09T01:57:59;31.58;;;18.75;;
51618;SDS011;38518;53.164;5.430;2023-10-09T02:00:30;28.33;;;17.42;;
51618;SDS011;38518;53.164;5.430;2023-10-09T02:03:00;31.55;;;15.88;;
51618;SDS011;38518;53.164;5.430;2023-10-09T02:05:30;25.40;;;15.48;;
51618;SDS011;38518;53.164;5.430;2023-10-09T02:07:58;22.80;;;13.52;;
51618;SDS011;38518;53.164;5.430;2023-10-09T02:10:27;24.30;;;12.98;;
51618;SDS011;38518;53.164;5.430;2023-10-09T02:12:53;21.83;;;12.02;;
51618;SDS011;38518;53.164;5.430;2023-10-09T02:15:27;21.77;;;11.95;;
51618;SDS011;38518;53.164;5.430;2023-10-09T02:18:15;20.02;;;12.07;;
51618;SDS011;38518;53.164;5.430;2023-10-09T02:20:49;18.80;;;11.52;;
51618;SDS011;38518;53.164;5.430;2023-10-09T02:23:28;23.70;;;11.98;;
51618;SDS011;38518;53.164;5.430;2023-10-09T02:26:15;20.40;;;10.70;;
51618;SDS011;38518;53.164;5.430;2023-10-09T02:28:48;16.35;;;10.88;;
51618;SDS011;38518;53.164;5.430;2023-10-09T02:31:34;18.05;;;10.45;;
51618;SDS011;38518;53.164;5.430;2023-10-09T02:34:09;21.65;;;10.25;;
51618;SDS011;38518;53.164;5.430;2023-10-09T02:36:39;18.48;;;11.30;;
51618;SDS011;38518;53.164;5.430;2023-10-09T02:39:08;20.92;;;10.88;;
51618;SDS011;38518;53.164;5.430;2023-10-09T02:41:54;18.23;;;10.93;;
51618;SDS011;38518;53.164;5.430;2023-10-09T02:44:27;16.40;;;10.10;;
51618;SDS011;38518;53.164;5.430;2023-10-09T02:47:04;20.00;;;11.38;;
51618;SDS011;38518;53.164;5.430;2023-10-09T02:49:37;17.88;;;10.15;;
51618;SDS011;38518;53.164;5.430;2023-10-09T02:52:05;18.55;;;10.20;;
51618;SDS011;38518;53.164;5.430;2023-10-09T02:54:32;18.50;;;9.95;;
51618;SDS011;38518;53.164;5.430;2023-10-09T02:57:06;18.90;;;9.77;;
51618;SDS011;38518;53.164;5.430;2023-10-09T02:59:33;16.88;;;10.18;;
51618;SDS011;38518;53.164;5.430;2023-10-09T03:01:59;17.42;;;9.80;;
51618;SDS011;38518;53.164;5.430;2023-10-09T03:04:26;18.17;;;10.27;;
51618;SDS011;38518;53.164;5.430;2023-10-09T03:06:59;17.92;;;9.35;;
51618;SDS011;38518;53.164;5.430;2023-10-09T03:09:26;18.63;;;8.68;;
51618;SDS011;38518;53.164;5.430;2023-10-09T03:11:55;19.27;;;9.82;;
51618;SDS011;38518;53.164;5.430;2023-10-09T03:14:27;15.93;;;9.07;;
51618;SDS011;38518;53.164;5.430;2023-10-09T03:16:54;19.00;;;9.15;;
51618;SDS011;38518;53.164;5.430;2023-10-09T03:19:25;15.68;;;9.10;;
51618;SDS011;38518;53.164;5.430;2023-10-09T03:21:51;20.55;;;8.90;;
51618;SDS011;38518;53.164;5.430;2023-10-09T03:24:17;19.10;;;9.15;;
51618;SDS011;38518;53.164;5.430;2023-10-09T03:26:44;15.73;;;8.93;;
51618;SDS011;38518;53.164;5.430;2023-10-09T03:29:10;17.55;;;9.38;;
51618;SDS011;38518;53.164;5.430;2023-10-09T03:31:36;21.45;;;9.70;;
51618;SDS011;38518;53.164;5.430;2023-10-09T03:34:03;18.52;;;8.95;;
51618;SDS011;38518;53.164;5.430;2023-10-09T03:36:29;19.58;;;9.35;;
51618;SDS011;38518;53.164;5.430;2023-10-09T03:38:59;19.80;;;9.27;;
51618;SDS011;38518;53.164;5.430;2023-10-09T03:41:25;17.73;;;9.30;;
51618;SDS011;38518;53.164;5.430;2023-10-09T03:43:54;20.10;;;9.27;;
51618;SDS011;38518;53.164;5.430;2023-10-09T03:46:20;18.50;;;9.18;;
51618;SDS011;38518;53.164;5.430;2023-10-09T03:48:51;18.52;;;9.15;;
51618;SDS011;38518;53.164;5.430;2023-10-09T03:51:17;22.13;;;9.30;;
51618;SDS011;38518;53.164;5.430;2023-10-09T03:53:50;22.98;;;9.27;;
51618;SDS011;38518;53.164;5.430;2023-10-09T03:56:18;25.10;;;9.93;;
51618;SDS011;38518;53.164;5.430;2023-10-09T03:58:49;23.85;;;9.27;;
51618;SDS011;38518;53.164;5.430;2023-10-09T04:01:20;17.83;;;8.88;;
51618;SDS011;38518;53.164;5.430;2023-10-09T04:03:52;19.10;;;9.27;;
51618;SDS011;38518;53.164;5.430;2023-10-09T04:06:21;22.10;;;9.38;;
51618;SDS011;38518;53.164;5.430;2023-10-09T04:08:47;21.35;;;9.50;;
51618;SDS011;38518;53.164;5.430;2023-10-09T04:11:14;18.77;;;9.00;;
51618;SDS011;38518;53.164;5.430;2023-10-09T04:13:46;20.05;;;9.07;;
51618;SDS011;38518;53.164;5.430;2023-10-09T04:16:12;18.20;;;8.55;;
51618;SDS011;38518;53.164;5.430;2023-10-09T04:18:53;20.83;;;9.68;;
51618;SDS011;38518;53.164;5.430;2023-10-09T04:21:22;18.45;;;9.95;;
51618;SDS011;38518;53.164;5.430;2023-10-09T04:24:04;19.23;;;9.00;;
51618;SDS011;38518;53.164;5.430;2023-10-09T04:26:39;23.85;;;9.73;;
51618;SDS011;38518;53.164;5.430;2023-10-09T04:29:13;19.95;;;9.30;;
51618;SDS011;38518;53.164;5.430;2023-10-09T04:31:52;24.65;;;9.65;;
51618;SDS011;38518;53.164;5.430;2023-10-09T04:34:24;24.00;;;9.88;;
51618;SDS011;38518;53.164;5.430;2023-10-09T04:36:57;22.58;;;9.65;;
51618;SDS011;38518;53.164;5.430;2023-10-09T04:39:28;20.08;;;9.38;;
51618;SDS011;38518;53.164;5.430;2023-10-09T04:41:54;20.88;;;9.32;;
51618;SDS011;38518;53.164;5.430;2023-10-09T04:44:39;19.23;;;9.70;;
51618;SDS011;38518;53.164;5.430;2023-10-09T04:47:30;24.65;;;9.57;;
51618;SDS011;38518;53.164;5.430;2023-10-09T04:50:04;21.98;;;9.77;;
51618;SDS011;38518;53.164;5.430;2023-10-09T04:52:39;18.10;;;9.05;;
51618;SDS011;38518;53.164;5.430;2023-10-09T04:55:06;24.35;;;10.35;;
51618;SDS011;38518;53.164;5.430;2023-10-09T04:57:36;20.55;;;10.07;;
51618;SDS011;38518;53.164;5.430;2023-10-09T05:00:08;20.40;;;9.75;;
51618;SDS011;38518;53.164;5.430;2023-10-09T05:03:07;21.48;;;9.57;;
51618;SDS011;38518;53.164;5.430;2023-10-09T05:05:37;21.63;;;10.23;;
51618;SDS011;38518;53.164;5.430;2023-10-09T05:08:17;20.08;;;9.07;;
51618;SDS011;38518;53.164;5.430;2023-10-09T05:10:47;22.98;;;10.30;;
51618;SDS011;38518;53.164;5.430;2023-10-09T05:13:30;20.00;;;9.57;;
51618;SDS011;38518;53.164;5.430;2023-10-09T05:18:40;22.13;;;9.57;;
51618;SDS011;38518;53.164;5.430;2023-10-09T05:21:07;24.60;;;10.20;;
51618;SDS011;38518;53.164;5.430;2023-10-09T05:24:01;23.33;;;10.13;;
51618;SDS011;38518;53.164;5.430;2023-10-09T05:26:47;22.15;;;9.90;;
51618;SDS011;38518;53.164;5.430;2023-10-09T05:31:49;24.00;;;10.20;;
51618;SDS011;38518;53.164;5.430;2023-10-09T05:34:21;21.38;;;9.45;;
51618;SDS011;38518;53.164;5.430;2023-10-09T05:36:48;18.65;;;9.90;;
51618;SDS011;38518;53.164;5.430;2023-10-09T05:39:14;25.13;;;10.00;;
51618;SDS011;38518;53.164;5.430;2023-10-09T05:41:47;24.15;;;9.48;;
51618;SDS011;38518;53.164;5.430;2023-10-09T05:44:24;21.83;;;9.77;;
51618;SDS011;38518;53.164;5.430;2023-10-09T05:47:09;20.85;;;9.70;;
51618;SDS011;38518;53.164;5.430;2023-10-09T05:49:53;23.00;;;9.27;;
51618;SDS011;38518;53.164;5.430;2023-10-09T05:52:42;22.40;;;9.35;;
51618;SDS011;38518;53.164;5.430;2023-10-09T05:55:28;23.35;;;9.60;;
51618;SDS011;38518;53.164;5.430;2023-10-09T05:58:13;22.00;;;9.57;;
51618;SDS011;38518;53.164;5.430;2023-10-09T06:00:57;23.80;;;9.80;;
51618;SDS011;38518;53.164;5.430;2023-10-09T06:03:42;18.00;;;9.23;;
51618;SDS011;38518;53.164;5.430;2023-10-09T06:06:16;22.80;;;9.55;;
51618;SDS011;38518;53.164;5.430;2023-10-09T06:11:55;17.60;;;8.95;;
51618;SDS011;38518;53.164;5.430;2023-10-09T06:14:41;18.75;;;9.50;;
51618;SDS011;38518;53.164;5.430;2023-10-09T06:17:23;23.55;;;8.82;;
51618;SDS011;38518;53.164;5.430;2023-10-09T06:19:49;19.70;;;9.27;;
51618;SDS011;38518;53.164;5.430;2023-10-09T06:22:23;19.52;;;9.43;;
51618;SDS011;38518;53.164;5.430;2023-10-09T06:25:01;25.38;;;9.48;;
51618;SDS011;38518;53.164;5.430;2023-10-09T06:27:34;22.40;;;10.07;;
51618;SDS011;38518;53.164;5.430;2023-10-09T06:30:00;18.92;;;9.50;;
51618;SDS011;38518;53.164;5.430;2023-10-09T06:32:48;22.92;;;9.75;;
51618;SDS011;38518;53.164;5.430;2023-10-09T06:35:23;20.70;;;8.95;;
51618;SDS011;38518;53.164;5.430;2023-10-09T06:38:12;20.52;;;8.95;;
51618;SDS011;38518;53.164;5.430;2023-10-09T06:40:49;21.77;;;9.20;;
51618;SDS011;38518;53.164;5.430;2023-10-09T06:43:30;20.45;;;10.07;;
51618;SDS011;38518;53.164;5.430;2023-10-09T06:46:14;22.52;;;10.23;;
51618;SDS011;38518;53.164;5.430;2023-10-09T06:48:49;23.27;;;9.98;;
51618;SDS011;38518;53.164;5.430;2023-10-09T06:51:21;20.27;;;10.00;;
51618;SDS011;38518;53.164;5.430;2023-10-09T06:53:50;17.83;;;9.45;;
51618;SDS011;38518;53.164;5.430;2023-10-09T06:58:57;24.40;;;9.90;;
51618;SDS011;38518;53.164;5.430;2023-10-09T07:01:39;23.23;;;9.20;;
51618;SDS011;38518;53.164;5.430;2023-10-09T07:04:05;19.95;;;9.50;;
51618;SDS011;38518;53.164;5.430;2023-10-09T07:06:47;23.50;;;9.40;;
51618;SDS011;38518;53.164;5.430;2023-10-09T07:09:22;22.20;;;8.75;;
51618;SDS011;38518;53.164;5.430;2023-10-09T07:11:49;22.35;;;9.15;;
51618;SDS011;38518;53.164;5.430;2023-10-09T07:14:20;17.00;;;8.35;;
51618;SDS011;38518;53.164;5.430;2023-10-09T07:17:07;26.42;;;9.93;;
51618;SDS011;38518;53.164;5.430;2023-10-09T07:20:10;22.98;;;9.52;;
51618;SDS011;38518;53.164;5.430;2023-10-09T07:22:36;32.17;;;9.57;;
51618;SDS011;38518;53.164;5.430;2023-10-09T07:25:05;26.98;;;8.98;;
51618;SDS011;38518;53.164;5.430;2023-10-09T07:27:53;25.48;;;9.00;;
51618;SDS011;38518;53.164;5.430;2023-10-09T07:30:21;21.52;;;8.95;;
51618;SDS011;38518;53.164;5.430;2023-10-09T07:35:33;19.42;;;8.75;;
51618;SDS011;38518;53.164;5.430;2023-10-09T07:38:18;24.73;;;9.52;;
51618;SDS011;38518;53.164;5.430;2023-10-09T07:40:49;26.00;;;9.25;;
51618;SDS011;38518;53.164;5.430;2023-10-09T07:43:26;24.90;;;9.18;;
51618;SDS011;38518;53.164;5.430;2023-10-09T07:46:11;21.98;;;9.25;;
51618;SDS011;38518;53.164;5.430;2023-10-09T07:48:59;17.60;;;8.68;;
51618;SDS011;38518;53.164;5.430;2023-10-09T07:51:37;20.40;;;8.95;;
51618;SDS011;38518;53.164;5.430;2023-10-09T07:54:08;20.05;;;9.02;;
51618;SDS011;38518;53.164;5.430;2023-10-09T07:56:35;25.73;;;8.65;;
51618;SDS011;38518;53.164;5.430;2023-10-09T07:59:11;18.85;;;9.18;;
51618;SDS011;38518;53.164;5.430;2023-10-09T08:01:39;20.70;;;8.55;;
51618;SDS011;38518;53.164;5.430;2023-10-09T08:04:20;23.98;;;9.20;;
51618;SDS011;38518;53.164;5.430;2023-10-09T08:07:06;19.70;;;8.70;;
51618;SDS011;38518;53.164;5.430;2023-10-09T08:09:44;18.50;;;8.50;;
51618;SDS011;38518;53.164;5.430;2023-10-09T08:12:13;21.25;;;8.30;;
51618;SDS011;38518;53.164;5.430;2023-10-09T08:14:58;20.38;;;8.73;;
51618;SDS011;38518;53.164;5.430;2023-10-09T08:17:42;21.30;;;8.85;;
51618;SDS011;38518;53.164;5.430;2023-10-09T08:20:16;22.90;;;8.07;;
51618;SDS011;38518;53.164;5.430;2023-10-09T08:22:42;19.60;;;8.32;;
51618;SDS011;38518;53.164;5.430;2023-10-09T08:25:11;19.52;;;8.52;;
51618;SDS011;38518;53.164;5.430;2023-10-09T08:27:58;18.27;;;7.97;;
51618;SDS011;38518;53.164;5.430;2023-10-09T08:30:40;17.50;;;7.75;;
51618;SDS011;38518;53.164;5.430;2023-10-09T08:33:14;20.05;;;8.73;;
51618;SDS011;38518;53.164;5.430;2023-10-09T08:35:50;21.90;;;8.15;;
51618;SDS011;38518;53.164;5.430;2023-10-09T08:38:16;18.55;;;7.93;;
51618;SDS011;38518;53.164;5.430;2023-10-09T08:40:48;20.75;;;9.10;;
51618;SDS011;38518;53.164;5.430;2023-10-09T08:43:19;21.88;;;8.85;;
51618;SDS011;38518;53.164;5.430;2023-10-09T08:45:51;21.27;;;8.65;;
51618;SDS011;38518;53.164;5.430;2023-10-09T08:48:19;21.90;;;9.25;;
51618;SDS011;38518;53.164;5.430;2023-10-09T08:50:48;21.67;;;8.93;;
51618;SDS011;38518;53.164;5.430;2023-10-09T08:53:19;17.13;;;8.25;;
51618;SDS011;38518;53.164;5.430;2023-10-09T08:55:46;17.10;;;7.80;;
51618;SDS011;38518;53.164;5.430;2023-10-09T08:58:15;16.92;;;7.85;;
51618;SDS011;38518;53.164;5.430;2023-10-09T09:01:02;21.60;;;8.30;;
51618;SDS011;38518;53.164;5.430;2023-10-09T09:03:37;18.55;;;8.57;;
51618;SDS011;38518;53.164;5.430;2023-10-09T09:06:10;19.73;;;8.15;;
51618;SDS011;38518;53.164;5.430;2023-10-09T09:08:40;17.58;;;8.45;;
51618;SDS011;38518;53.164;5.430;2023-10-09T09:16:40;23.98;;;8.93;;
51618;SDS011;38518;53.164;5.430;2023-10-09T09:19:09;18.15;;;8.85;;
51618;SDS011;38518;53.164;5.430;2023-10-09T09:21:38;18.70;;;8.35;;
51618;SDS011;38518;53.164;5.430;2023-10-09T09:24:13;19.92;;;8.73;;
51618;SDS011;38518;53.164;5.430;2023-10-09T09:26:55;18.17;;;8.18;;
51618;SDS011;38518;53.164;5.430;2023-10-09T09:32:01;19.00;;;8.73;;
51618;SDS011;38518;53.164;5.430;2023-10-09T09:34:44;22.35;;;8.75;;
51618;SDS011;38518;53.164;5.430;2023-10-09T09:37:24;19.38;;;8.30;;
51618;SDS011;38518;53.164;5.430;2023-10-09T09:39:58;19.45;;;8.45;;
51618;SDS011;38518;53.164;5.430;2023-10-09T09:42:27;23.35;;;9.15;;
51618;SDS011;38518;53.164;5.430;2023-10-09T09:44:56;20.95;;;9.02;;
51618;SDS011;38518;53.164;5.430;2023-10-09T09:47:25;20.65;;;8.50;;
51618;SDS011;38518;53.164;5.430;2023-10-09T09:49:52;19.70;;;8.32;;
51618;SDS011;38518;53.164;5.430;2023-10-09T09:52:33;23.58;;;9.15;;
51618;SDS011;38518;53.164;5.430;2023-10-09T09:55:09;19.02;;;9.05;;
51618;SDS011;38518;53.164;5.430;2023-10-09T09:57:48;19.88;;;8.02;;
51618;SDS011;38518;53.164;5.430;2023-10-09T10:00:18;23.58;;;8.05;;
51618;SDS011;38518;53.164;5.430;2023-10-09T10:02:57;20.02;;;8.45;;
51618;SDS011;38518;53.164;5.430;2023-10-09T10:05:30;16.67;;;7.88;;
51618;SDS011;38518;53.164;5.430;2023-10-09T10:08:00;21.35;;;8.15;;
51618;SDS011;38518;53.164;5.430;2023-10-09T10:10:33;15.75;;;8.10;;
51618;SDS011;38518;53.164;5.430;2023-10-09T10:13:03;20.67;;;8.43;;
51618;SDS011;38518;53.164;5.430;2023-10-09T10:18:53;16.10;;;7.03;;
51618;SDS011;38518;53.164;5.430;2023-10-09T10:21:32;15.77;;;7.63;;
51618;SDS011;38518;53.164;5.430;2023-10-09T10:29:43;19.90;;;7.70;;
51618;SDS011;38518;53.164;5.430;2023-10-09T10:32:11;18.98;;;6.65;;
51618;SDS011;38518;53.164;5.430;2023-10-09T10:37:36;15.93;;;7.18;;
51618;SDS011;38518;53.164;5.430;2023-10-09T10:40:08;19.67;;;7.07;;
51618;SDS011;38518;53.164;5.430;2023-10-09T10:43:00;12.80;;;6.38;;
51618;SDS011;38518;53.164;5.430;2023-10-09T10:45:35;15.20;;;6.70;;
51618;SDS011;38518;53.164;5.430;2023-10-09T10:48:08;14.70;;;5.72;;
51618;SDS011;38518;53.164;5.430;2023-10-09T10:50:57;15.85;;;6.00;;
51618;SDS011;38518;53.164;5.430;2023-10-09T10:53:23;13.75;;;5.90;;
51618;SDS011;38518;53.164;5.430;2023-10-09T10:58:22;16.33;;;5.85;;
51618;SDS011;38518;53.164;5.430;2023-10-09T11:00:52;12.10;;;5.70;;
51618;SDS011;38518;53.164;5.430;2023-10-09T11:03:25;11.52;;;5.50;;
51618;SDS011;38518;53.164;5.430;2023-10-09T11:06:09;13.50;;;5.90;;
51618;SDS011;38518;53.164;5.430;2023-10-09T11:08:45;15.02;;;5.80;;
51618;SDS011;38518;53.164;5.430;2023-10-09T11:11:19;16.98;;;5.47;;
51618;SDS011;38518;53.164;5.430;2023-10-09T11:13:46;13.57;;;5.32;;
51618;SDS011;38518;53.164;5.430;2023-10-09T11:16:19;12.52;;;4.88;;
51618;SDS011;38518;53.164;5.430;2023-10-09T11:19:12;14.10;;;5.65;;
51618;SDS011;38518;53.164;5.430;2023-10-09T11:21:53;14.57;;;5.50;;
51618;SDS011;38518;53.164;5.430;2023-10-09T11:24:31;12.27;;;5.18;;
51618;SDS011;38518;53.164;5.430;2023-10-09T11:27:04;10.38;;;4.45;;
51618;SDS011;38518;53.164;5.430;2023-10-09T11:29:35;11.77;;;4.45;;
51618;SDS011;38518;53.164;5.430;2023-10-09T11:32:17;11.82;;;4.35;;
51618;SDS011;38518;53.164;5.430;2023-10-09T11:34:45;11.33;;;4.17;;
51618;SDS011;38518;53.164;5.430;2023-10-09T11:37:18;10.48;;;4.82;;
51618;SDS011;38518;53.164;5.430;2023-10-09T11:43:19;12.48;;;5.20;;
51618;SDS011;38518;53.164;5.430;2023-10-09T11:46:11;14.73;;;5.45;;
51618;SDS011;38518;53.164;5.430;2023-10-09T11:48:37;12.50;;;5.15;;
51618;SDS011;38518;53.164;5.430;2023-10-09T11:51:31;9.88;;;4.70;;
51618;SDS011;38518;53.164;5.430;2023-10-09T11:53:57;11.65;;;4.75;;
51618;SDS011;38518;53.164;5.430;2023-10-09T11:56:24;11.93;;;4.30;;
51618;SDS011;38518;53.164;5.430;2023-10-09T11:58:52;12.82;;;5.18;;
51618;SDS011;38518;53.164;5.430;2023-10-09T12:01:18;9.65;;;4.82;;
51618;SDS011;38518;53.164;5.430;2023-10-09T12:03:51;14.57;;;5.05;;
51618;SDS011;38518;53.164;5.430;2023-10-09T12:06:19;10.27;;;4.40;;
51618;SDS011;38518;53.164;5.430;2023-10-09T12:08:49;9.88;;;4.40;;
51618;SDS011;38518;53.164;5.430;2023-10-09T12:11:15;15.40;;;4.40;;
51618;SDS011;38518;53.164;5.430;2023-10-09T12:13:50;9.32;;;4.32;;
51618;SDS011;38518;53.164;5.430;2023-10-09T12:16:21;11.85;;;4.53;;
51618;SDS011;38518;53.164;5.430;2023-10-09T12:18:53;8.23;;;3.72;;
51618;SDS011;38518;53.164;5.430;2023-10-09T12:21:20;11.23;;;4.13;;
51618;SDS011;38518;53.164;5.430;2023-10-09T12:23:46;8.40;;;3.45;;
51618;SDS011;38518;53.164;5.430;2023-10-09T12:26:12;11.57;;;4.18;;
51618;SDS011;38518;53.164;5.430;2023-10-09T12:28:42;14.75;;;4.00;;
51618;SDS011;38518;53.164;5.430;2023-10-09T12:31:11;11.90;;;4.10;;
51618;SDS011;38518;53.164;5.430;2023-10-09T12:33:40;48.45;;;5.75;;
51618;SDS011;38518;53.164;5.430;2023-10-09T12:36:07;10.13;;;3.92;;
51618;SDS011;38518;53.164;5.430;2023-10-09T12:38:43;11.93;;;4.18;;
51618;SDS011;38518;53.164;5.430;2023-10-09T12:41:11;9.82;;;3.75;;
51618;SDS011;38518;53.164;5.430;2023-10-09T12:43:50;12.50;;;4.20;;
51618;SDS011;38518;53.164;5.430;2023-10-09T12:46:17;8.88;;;4.03;;
51618;SDS011;38518;53.164;5.430;2023-10-09T12:48:48;11.82;;;4.53;;
51618;SDS011;38518;53.164;5.430;2023-10-09T12:51:20;13.00;;;4.55;;
51618;SDS011;38518;53.164;5.430;2023-10-09T12:53:51;12.07;;;4.70;;
51618;SDS011;38518;53.164;5.430;2023-10-09T12:56:25;11.27;;;4.50;;
51618;SDS011;38518;53.164;5.430;2023-10-09T12:59:17;10.90;;;4.00;;
51618;SDS011;38518;53.164;5.430;2023-10-09T13:01:45;7.82;;;4.00;;
51618;SDS011;38518;53.164;5.430;2023-10-09T13:04:14;12.48;;;4.82;;
51618;SDS011;38518;53.164;5.430;2023-10-09T13:06:41;14.23;;;5.50;;
51618;SDS011;38518;53.164;5.430;2023-10-09T13:09:11;10.88;;;4.82;;
51618;SDS011;38518;53.164;5.430;2023-10-09T13:11:39;13.73;;;4.60;;
51618;SDS011;38518;53.164;5.430;2023-10-09T13:14:08;14.27;;;4.95;;
51618;SDS011;38518;53.164;5.430;2023-10-09T13:16:45;15.67;;;4.93;;
51618;SDS011;38518;53.164;5.430;2023-10-09T13:19:12;14.82;;;4.53;;
51618;SDS011;38518;53.164;5.430;2023-10-09T13:21:38;15.70;;;4.88;;
51618;SDS011;38518;53.164;5.430;2023-10-09T13:24:05;13.85;;;4.63;;
51618;SDS011;38518;53.164;5.430;2023-10-09T13:26:38;10.20;;;4.65;;
51618;SDS011;38518;53.164;5.430;2023-10-09T13:29:06;13.70;;;4.60;;
51618;SDS011;38518;53.164;5.430;2023-10-09T13:31:36;12.23;;;4.15;;
51618;SDS011;38518;53.164;5.430;2023-10-09T13:34:06;12.95;;;4.60;;
51618;SDS011;38518;53.164;5.430;2023-10-09T13:36:35;10.25;;;4.05;;
51618;SDS011;38518;53.164;5.430;2023-10-09T13:39:07;13.98;;;4.57;;
51618;SDS011;38518;53.164;5.430;2023-10-09T13:41:54;13.02;;;4.13;;
51618;SDS011;38518;53.164;5.430;2023-10-09T13:44:28;11.70;;;3.80;;
51618;SDS011;38518;53.164;5.430;2023-10-09T13:46:54;10.30;;;3.55;;
51618;SDS011;38518;53.164;5.430;2023-10-09T13:49:24;12.10;;;3.58;;
51618;SDS011;38518;53.164;5.430;2023-10-09T13:51:55;11.95;;;3.42;;
51618;SDS011;38518;53.164;5.430;2023-10-09T13:54:25;7.68;;;3.13;;
51618;SDS011;38518;53.164;5.430;2023-10-09T13:57:01;9.45;;;3.45;;
51618;SDS011;38518;53.164;5.430;2023-10-09T13:59:34;10.65;;;3.10;;
51618;SDS011;38518;53.164;5.430;2023-10-09T14:02:01;8.82;;;3.20;;
51618;SDS011;38518;53.164;5.430;2023-10-09T14:06:34;8.15;;;3.08;;
51618;SDS011;38518;53.164;5.430;2023-10-09T14:09:03;7.57;;;3.10;;
51618;SDS011;38518;53.164;5.430;2023-10-09T14:11:30;9.95;;;3.83;;
51618;SDS011;38518;53.164;5.430;2023-10-09T14:13:57;7.85;;;3.25;;
51618;SDS011;38518;53.164;5.430;2023-10-09T14:16:26;8.15;;;3.22;;
51618;SDS011;38518;53.164;5.430;2023-10-09T14:18:54;8.15;;;3.40;;
51618;SDS011;38518;53.164;5.430;2023-10-09T14:21:23;9.38;;;3.05;;
51618;SDS011;38518;53.164;5.430;2023-10-09T14:23:51;6.22;;;2.83;;
51618;SDS011;38518;53.164;5.430;2023-10-09T14:26:22;10.05;;;2.97;;
51618;SDS011;38518;53.164;5.430;2023-10-09T14:28:50;7.28;;;2.92;;
51618;SDS011;38518;53.164;5.430;2023-10-09T14:31:18;8.20;;;3.10;;
51618;SDS011;38518;53.164;5.430;2023-10-09T14:33:51;8.98;;;3.22;;
51618;SDS011;38518;53.164;5.430;2023-10-09T14:36:21;6.70;;;3.08;;
51618;SDS011;38518;53.164;5.430;2023-10-09T14:38:50;13.10;;;3.30;;
51618;SDS011;38518;53.164;5.430;2023-10-09T14:41:21;6.38;;;3.47;;
51618;SDS011;38518;53.164;5.430;2023-10-09T14:43:51;8.32;;;3.45;;
51618;SDS011;38518;53.164;5.430;2023-10-09T14:46:18;8.85;;;3.67;;
51618;SDS011;38518;53.164;5.430;2023-10-09T14:48:54;8.02;;;3.10;;
51618;SDS011;38518;53.164;5.430;2023-10-09T14:51:21;7.88;;;2.88;;
51618;SDS011;38518;53.164;5.430;2023-10-09T14:53:58;7.57;;;3.30;;
51618;SDS011;38518;53.164;5.430;2023-10-09T14:56:25;6.90;;;3.33;;
51618;SDS011;38518;53.164;5.430;2023-10-09T14:58:58;11.35;;;3.63;;
51618;SDS011;38518;53.164;5.430;2023-10-09T15:01:29;7.60;;;3.30;;
51618;SDS011;38518;53.164;5.430;2023-10-09T15:03:56;6.68;;;3.25;;
51618;SDS011;38518;53.164;5.430;2023-10-09T15:06:24;11.15;;;3.92;;
51618;SDS011;38518;53.164;5.430;2023-10-09T15:08:52;8.00;;;3.65;;
51618;SDS011;38518;53.164;5.430;2023-10-09T15:11:21;13.02;;;3.78;;
51618;SDS011;38518;53.164;5.430;2023-10-09T15:13:48;7.20;;;3.00;;
51618;SDS011;38518;53.164;5.430;2023-10-09T15:16:14;8.30;;;3.80;;
51618;SDS011;38518;53.164;5.430;2023-10-09T15:18:40;7.20;;;3.65;;
51618;SDS011;38518;53.164;5.430;2023-10-09T15:21:06;9.23;;;3.33;;
51618;SDS011;38518;53.164;5.430;2023-10-09T15:23:33;6.68;;;3.30;;
51618;SDS011;38518;53.164;5.430;2023-10-09T15:26:01;17.85;;;3.67;;
51618;SDS011;38518;53.164;5.430;2023-10-09T15:28:27;7.50;;;2.95;;
51618;SDS011;38518;53.164;5.430;2023-10-09T15:30:57;8.18;;;3.22;;
51618;SDS011;38518;53.164;5.430;2023-10-09T15:33:24;9.35;;;3.20;;
51618;SDS011;38518;53.164;5.430;2023-10-09T15:35:56;7.97;;;3.25;;
51618;SDS011;38518;53.164;5.430;2023-10-09T15:38:21;9.40;;;3.10;;
51618;SDS011;38518;53.164;5.430;2023-10-09T15:40:50;5.90;;;3.17;;
51618;SDS011;38518;53.164;5.430;2023-10-09T15:43:16;8.57;;;3.08;;
51618;SDS011;38518;53.164;5.430;2023-10-09T15:45:45;4.03;;;2.78;;
51618;SDS011;38518;53.164;5.430;2023-10-09T15:48:13;6.35;;;3.08;;